Shanghai Dawn — 3FMN2 — position and weather

sailwx.info

Track history (hours):
 
Tides and Currents Weather Stations Pressure Air Temp Water Temp Dewpoint Dewpoint Depression Visibility Wind Speed Wind Dir Waves Ship Positions

Shanghai Dawn

Last reported at 2017-Apr-05 13:26 UTC. Time now 2017-Apr-29 05:39 UTC.
Position N 28°44' W 094°09'.
Warning: this ship's position is 23 days out of date.

Length 246 m; draft 12.1 m.

Type: Tanker. MMSI: 356075000.

Date/timePositionNaut miles runAvg speedWind from/ knotsBaromVisibWave heightAir tempDewpointWater temp
2017-Apr-05 13:26N 28°44' W 094°09'0 0.0
2017-Apr-05 00:20N 28°44' W 094°09'0 0.0
2017-Apr-04 23:38N 28°44' W 094°09'0 0.0
2017-Apr-04 23:30N 28°44' W 094°09'0 0.0
2017-Apr-04 21:49N 28°44' W 094°09'5 2.7
2017-Apr-04 19:53N 28°40' W 094°05'2 4.2
2017-Apr-04 19:30N 28°39' W 094°04'2 4.5
2017-Apr-04 19:00N 28°37' W 094°02'3 5.1
2017-Apr-04 18:30N 28°35' W 094°00'3 5.0
2017-Apr-04 18:00N 28°34' W 093°58'3 5.6
2017-Apr-04 17:30N 28°32' W 093°55'5 7.9
2017-Apr-04 16:53N 28°32' W 093°50'0 0.8
2017-Apr-04 16:30N 28°33' W 093°50'1 1.2
2017-Apr-04 16:00N 28°32' W 093°50'1 1.3
2017-Apr-04 15:30N 28°32' W 093°50'4 8.5
2017-Apr-04 15:00N 28°31' W 093°45'1111.3
2017-Apr-04 13:59N 28°31' W 093°32'611.8
2017-Apr-04 13:30N 28°31' W 093°26'611.5
2017-Apr-04 13:00N 28°30' W 093°20'612.1
2017-Apr-04 12:30N 28°26' W 093°14'612.0
2017-Apr-04 12:00N 28°23' W 093°08'611.9
2017-Apr-04 11:30N 28°20' W 093°03'612.0
2017-Apr-04 11:00N 28°16' W 092°57'611.9
2017-Apr-04 10:30N 28°12' W 092°52'2411.9
2017-Apr-04 08:32N 27°54' W 092°35'012.0
2017-Apr-04 08:30N 27°54' W 092°35'4411.9
2017-Apr-04 04:45N 27°55' W 091°45'312.2
2017-Apr-04 04:30N 27°55' W 091°41'712.2
2017-Apr-04 03:54N 27°57' W 091°33'912.3
2017-Apr-04 03:12N 28°00' W 091°24'212.2
2017-Apr-04 03:00N 28°01' W 091°21'612.1
2017-Apr-04 02:28N 28°00' W 091°14'1312.0
2017-Apr-04 01:24N 27°58' W 090°60'612.1
2017-Apr-04 00:56N 27°59' W 090°53'  
2017-Mar-31 13:33N 29°39' W 089°57'410.1
2017-Mar-31 13:09N 29°37' W 089°53'1 9.9
2017-Mar-31 13:00N 29°36' W 089°52'510.1
2017-Mar-31 12:30N 29°34' W 089°47'810.0
2017-Mar-31 11:42N 29°28' W 089°40'2 9.6
2017-Mar-31 11:30N 29°27' W 089°38'238 8.2
2017-Mar-30 06:33N 29°00' W 094°09'1212.2
2017-Mar-30 05:33N 29°06' W 094°21'1212.2
2017-Mar-30 04:33N 29°13' W 094°32'1110.6
2017-Mar-30 03:33N 29°20' W 094°41'1110.7
2017-Mar-30 02:33N 29°22' W 094°53'  
2017-Mar-26 22:20N 29°22' W 094°53'1 1.6
2017-Mar-26 21:33N 29°23' W 094°52'  
Track history (hours):
 
Tides and Currents Weather Stations Pressure Air Temp Water Temp Dewpoint Dewpoint Depression Visibility Wind Speed Wind Dir Waves Ship Positions

Shanghai Dawn

Last reported at 2017-Apr-05 13:26 UTC. Time now 2017-Apr-29 05:39 UTC.
Position N 28°44' W 094°09'.
Warning: this ship's position is 23 days out of date.

Length 246 m; draft 12.1 m.

Type: Tanker. MMSI: 356075000.

Date/timePositionNaut miles runAvg speedWind from/ knotsBaromVisibWave heightAir tempDewpointWater temp
2017-Apr-05 13:26N 28°44' W 094°09'0 0.0
2017-Apr-05 00:20N 28°44' W 094°09'0 0.0
2017-Apr-04 23:38N 28°44' W 094°09'0 0.0
2017-Apr-04 23:30N 28°44' W 094°09'0 0.0
2017-Apr-04 21:49N 28°44' W 094°09'5 2.7
2017-Apr-04 19:53N 28°40' W 094°05'2 4.2
2017-Apr-04 19:30N 28°39' W 094°04'2 4.5
2017-Apr-04 19:00N 28°37' W 094°02'3 5.1
2017-Apr-04 18:30N 28°35' W 094°00'3 5.0
2017-Apr-04 18:00N 28°34' W 093°58'3 5.6
2017-Apr-04 17:30N 28°32' W 093°55'5 7.9
2017-Apr-04 16:53N 28°32' W 093°50'0 0.8
2017-Apr-04 16:30N 28°33' W 093°50'1 1.2
2017-Apr-04 16:00N 28°32' W 093°50'1 1.3
2017-Apr-04 15:30N 28°32' W 093°50'4 8.5
2017-Apr-04 15:00N 28°31' W 093°45'1111.3
2017-Apr-04 13:59N 28°31' W 093°32'611.8
2017-Apr-04 13:30N 28°31' W 093°26'611.5
2017-Apr-04 13:00N 28°30' W 093°20'612.1
2017-Apr-04 12:30N 28°26' W 093°14'612.0
2017-Apr-04 12:00N 28°23' W 093°08'611.9
2017-Apr-04 11:30N 28°20' W 093°03'612.0
2017-Apr-04 11:00N 28°16' W 092°57'611.9
2017-Apr-04 10:30N 28°12' W 092°52'2411.9
2017-Apr-04 08:32N 27°54' W 092°35'012.0
2017-Apr-04 08:30N 27°54' W 092°35'4411.9
2017-Apr-04 04:45N 27°55' W 091°45'312.2
2017-Apr-04 04:30N 27°55' W 091°41'712.2
2017-Apr-04 03:54N 27°57' W 091°33'912.3
2017-Apr-04 03:12N 28°00' W 091°24'212.2
2017-Apr-04 03:00N 28°01' W 091°21'612.1
2017-Apr-04 02:28N 28°00' W 091°14'1312.0
2017-Apr-04 01:24N 27°58' W 090°60'612.1
2017-Apr-04 00:56N 27°59' W 090°53'  
2017-Mar-31 13:33N 29°39' W 089°57'410.1
2017-Mar-31 13:09N 29°37' W 089°53'1 9.9
2017-Mar-31 13:00N 29°36' W 089°52'510.1
2017-Mar-31 12:30N 29°34' W 089°47'810.0
2017-Mar-31 11:42N 29°28' W 089°40'2 9.6
2017-Mar-31 11:30N 29°27' W 089°38'238 8.2
2017-Mar-30 06:33N 29°00' W 094°09'1212.2
2017-Mar-30 05:33N 29°06' W 094°21'1212.2
2017-Mar-30 04:33N 29°13' W 094°32'1110.6
2017-Mar-30 03:33N 29°20' W 094°41'1110.7
2017-Mar-30 02:33N 29°22' W 094°53'  
2017-Mar-26 22:20N 29°22' W 094°53'1 1.6
2017-Mar-26 21:33N 29°23' W 094°52'  

Dump ship's entire track history